Flight Track Log - Related Links

Times and Time Zones

All times are in EDT time to prevent confusion due to time zone crossing. See the N6068Y flight status page for this flight to view local times or setup timezone preferences in your user account.

Time Position Orientation Groundspeed Altitude Reporting Facility
EDT Latitude Longitude Course Direction KTS km/h feet Rate Location/Type
Fri 12:07:54 42.5419 -83.1967 350° North 92 171 1.100  Level Cleveland Center
Fri 12:08:49 42.5706 -83.2033 350° North 129 238 1.600 632 Climbing Cleveland Center
Fri 12:09:10 42.5764 -83.2014 14° North 125 232 1.900 857 Climbing Cleveland Center
Fri 12:09:38 42.5986 -83.1931 15° North 128 237 2.300 774 Climbing Cleveland Center
Fri 12:10:12 42.6108 -83.1839 29° Northeast 130 241 2.700 800 Climbing Cleveland Center
Fri 12:10:38 42.6281 -83.1661 37° Northeast 130 241 3.100 774 Climbing Cleveland Center
Fri 12:11:14 42.6414 -83.1639 North 128 237 3.500 689 Climbing Cleveland Center
Fri 12:11:39 42.6561 -83.1814 319° Northwest 105 195 3.800 871 Climbing Cleveland Center
Fri 12:12:16 42.6664 -83.1808 North 115 212 4.400 764 Climbing Cleveland Center
Fri 12:12:34 42.6811 -83.1847 349° North 97 180 4.500 581 Climbing Cleveland Center
Fri 12:13:18 42.6972 -83.1939 337° Northwest 103 192 5.000 493 Climbing Cleveland Center
Fri 12:13:47 42.7083 -83.2114 311° West 100 185 5.100 581 Climbing Cleveland Center
Fri 12:14:20 42.7200 -83.2239 322° Northwest 106 196 5.600 875 Climbing Cleveland Center
Fri 12:14:35 42.7256 -83.2336 308° West 106 196 5.800 787 Climbing Cleveland Center
Fri 12:15:21 42.7347 -83.2553 300° West 93 172 6.400 627 Climbing Cleveland Center
Fri 12:15:42 42.7397 -83.2669 300° West 94 174 6.500 581 Climbing Cleveland Center
Fri 12:16:23 42.7525 -83.2833 317° Northwest 99 183 7.000 699 Climbing Cleveland Center
Fri 12:17:25 42.7747 -83.3083 320° Northwest 98 182 7.700 629 Climbing Cleveland Center
Fri 12:18:27 42.8006 -83.3269 332° Northwest 106 196 8.300 532 Climbing Cleveland Center
Fri 12:19:29 42.8258 -83.3536 322° Northwest 106 196 8.800 532 Climbing Cleveland Center
Fri 12:20:31 42.8528 -83.3717 334° Northwest 108 200 9.400 581 Climbing Cleveland Center
Fri 12:21:33 42.8858 -83.3794 350° North 113 209 10.000 387 Climbing Cleveland Center
Fri 12:22:35 42.9147 -83.3803 359° North 114 211 10.200 145 Climbing Cleveland Center
Fri 12:23:37 42.9397 -83.4056 323° Northwest 118 219 10.300 -48 Climbing Cleveland Center
Fri 12:24:39 42.9422 -83.4500 274° West 118 219 10.100 -97 Descending Cleveland Center
Fri 12:25:41 42.9469 -83.5050 277° West 125 232 10.100  Level Cleveland Center
Fri 12:26:43 42.9531 -83.5514 280° West 127 235 10.100 -48 Level Cleveland Center
Fri 12:27:45 42.9617 -83.6067 282° West 138 256 10.000 -48 Descending Cleveland Center
Fri 12:28:47 42.9678 -83.6572 279° West 129 238 10.000  Level Cleveland Center
Fri 12:29:49 42.9722 -83.7072 277° West 134 248 10.000  Level Cleveland Center
Fri 12:30:51 42.9761 -83.7497 277° West 133 246 10.000  Level Cleveland Center
Fri 12:31:53 42.9842 -83.8083 281° West 131 243 10.000  Level Cleveland Center
Fri 12:32:55 42.9900 -83.8575 279° West 134 248 10.000  Level Cleveland Center
Fri 12:33:57 42.9958 -83.9100 279° West 131 243 10.000  Level Cleveland Center
Fri 12:34:59 43.0011 -83.9572 279° West 129 238 10.000  Level Cleveland Center
Fri 12:36:01 43.0069 -84.0089 279° West 129 238 10.000  Level Cleveland Center
Fri 12:37:04 43.0125 -84.0586 279° West 132 245 10.000  Level Cleveland Center
Fri 12:38:06 43.0189 -84.1122 279° West 135 249 10.000  Level Cleveland Center
Fri 12:39:08 43.0314 -84.1594 290° West 136 253 10.000 -48 Level Cleveland Center
Fri 12:40:10 43.0356 -84.2131 276° West 134 248 9.900 -48 Descending Cleveland Center
Fri 12:41:12 43.0425 -84.2619 281° West 133 246 9.900  Level Cleveland Center
Fri 12:42:14 43.0478 -84.3156 278° West 133 246 9.900  Level Cleveland Center
Fri 12:43:16 43.0525 -84.3672 277° West 130 241 9.900  Level Cleveland Center
Fri 12:43:47 43.0581 -84.3922 287° West 132 245 9.900  Level Chicago Center
Fri 12:44:49 43.0628 -84.4400 278° West 131 243 9.900  Level Chicago Center
Fri 12:45:51 43.0675 -84.4847 278° West 126 233 9.900  Level Chicago Center
Fri 12:46:53 43.0717 -84.5439 276° West 129 238 9.900  Level Chicago Center
Fri 12:47:55 43.0781 -84.5903 281° West 128 237 9.900  Level Chicago Center
Fri 12:48:57 43.0811 -84.6378 275° West 126 233 9.900  Level Chicago Center
Fri 12:50:00 43.0878 -84.6844 281° West 126 233 9.900  Level Chicago Center
Fri 12:51:02 43.0933 -84.7300 279° West 124 230 9.900  Level Chicago Center
Fri 12:52:04 43.0978 -84.7778 277° West 126 233 9.900  Level Chicago Center
Fri 12:53:06 43.1044 -84.8344 279° West 126 233 9.900  Level Chicago Center
Fri 12:54:08 43.1086 -84.8828 277° West 128 237 9.900  Level Chicago Center
Fri 12:55:10 43.1136 -84.9306 278° West 127 235 9.900  Level Chicago Center
Fri 12:56:12 43.1186 -84.9778 278° West 127 235 9.900 48 Level Chicago Center
Fri 12:57:14 43.1236 -85.0258 278° West 128 237 10.000  Climbing Chicago Center
Fri 12:58:16 43.1294 -85.0844 278° West 128 237 9.900 -48 Descending Chicago Center
Fri 12:59:18 43.1347 -85.1297 279° West 125 232 9.900  Level Chicago Center
Fri 13:00:20 43.1392 -85.1772 277° West 125 232 9.900  Level Chicago Center
Fri 13:01:22 43.1433 -85.2281 276° West 128 237 9.900 48 Level Chicago Center
Fri 13:02:24 43.1486 -85.2758 279° West 127 235 10.000 48 Climbing Chicago Center
Fri 13:03:26 43.1536 -85.3247 278° West 128 237 10.000  Level Chicago Center
Fri 13:04:28 43.1578 -85.3739 277° West 130 241 10.000  Level Chicago Center
Fri 13:05:31 43.1639 -85.4342 278° West 133 246 10.000  Level Chicago Center
Fri 13:06:33 43.1692 -85.4853 278° West 136 253 10.000  Level Chicago Center
Fri 13:07:35 43.1739 -85.5358 277° West 136 253 10.000  Level Chicago Center
Fri 13:08:37 43.1792 -85.5853 278° West 134 248 10.000  Level Chicago Center
Fri 13:09:39 43.1842 -85.6328 278° West 128 237 10.000 -48 Level Chicago Center
Fri 13:10:41 43.1886 -85.6825 277° West 131 243 9.900 -48 Descending Chicago Center
Fri 13:11:43 43.1942 -85.7417 277° West 131 243 9.900 48 Level Chicago Center
Fri 13:12:45 43.1994 -85.7944 278° West 139 257 10.000 48 Climbing Chicago Center
Fri 13:13:47 43.2042 -85.8481 277° West 142 262 10.000 -48 Level Chicago Center
Fri 13:14:49 43.2094 -85.8997 278° West 140 259 9.900 48 Descending Chicago Center
Fri 13:15:51 43.2136 -85.9522 276° West 140 259 10.100 97 Climbing Chicago Center
Fri 13:16:53 43.2194 -86.0161 277° West 142 262 10.100  Level Chicago Center
Fri 13:17:55 43.2244 -86.0689 277° West 141 261 10.100  Level Chicago Center
Fri 13:18:57 43.2292 -86.1206 277° West 139 257 10.100  Level Chicago Center
Fri 13:19:59 43.2344 -86.1736 278° West 140 259 10.100  Level Chicago Center
Fri 13:21:01 43.2389 -86.2261 277° West 140 259 10.100  Level Chicago Center
Fri 13:22:03 43.2456 -86.2894 278° West 140 259 10.100  Level Chicago Center
Fri 13:23:05 43.2494 -86.3414 276° West 138 256 10.100  Level Chicago Center
Fri 13:24:07 43.2542 -86.3942 277° West 139 257 10.100 48 Level Chicago Center
Fri 13:25:09 43.2597 -86.4475 278° West 140 259 10.200 48 Climbing Chicago Center
Fri 13:26:11 43.2636 -86.4969 276° West 132 245 10.200 48 Level Chicago Center
Fri 13:27:13 43.2681 -86.5464 277° West 132 245 10.300 48 Climbing Chicago Center
Fri 13:28:15 43.2736 -86.6086 277° West 137 254 10.300  Level Chicago Center
Fri 13:29:17 43.2775 -86.6619 276° West 142 262 10.300 97 Level Chicago Center
Fri 13:30:19 43.2822 -86.7139 277° West 137 254 10.500 242 Climbing Chicago Center
Fri 13:31:21 43.2869 -86.7619 278° West 129 238 10.800 339 Climbing Chicago Center
Fri 13:32:23 43.2906 -86.8039 277° West 113 209 11.200 387 Climbing Chicago Center
Fri 13:33:25 43.2944 -86.8433 278° West 104 193 11.600 387 Climbing Chicago Center
Fri 13:34:27 43.2981 -86.8878 276° West 98 182 12.000 194 Climbing Chicago Center
Fri 13:35:29 43.3019 -86.9306 277° West 111 206 12.000  Level Chicago Center
Fri 13:36:31 43.3044 -86.9756 274° West 118 219 12.000 48 Level Chicago Center
Fri 13:37:33 43.3097 -87.0231 279° West 124 230 12.100  Climbing Chicago Center
Fri 13:38:35 43.3136 -87.0706 276° West 125 232 12.000  Descending Chicago Center
Fri 13:39:38 43.3183 -87.1283 276° West 128 237 12.100 48 Climbing Chicago Center
Fri 13:40:40 43.3219 -87.1775 276° West 129 238 12.100  Level Chicago Center
Fri 13:41:42 43.3261 -87.2261 277° West 129 238 12.100  Level Chicago Center
Fri 13:42:44 43.3308 -87.2750 278° West 130 241 12.100  Level Chicago Center
Fri 13:43:46 43.3342 -87.3253 275° West 132 245 12.100  Level Chicago Center
Fri 13:44:48 43.3378 -87.3792 275° West 129 238 12.100 -48 Level Chicago Center
Fri 13:45:50 43.3419 -87.4303 276° West 133 246 12.000 -71 Descending Chicago Center
Fri 13:47:37 43.3500 -87.5167 277° West 130 241 11.900  Descending KMKE
Fri 13:48:16 43.3506 -87.5481 271° West 130 241 12.000 75 Climbing Minneapolis Center
Fri 13:48:57 43.3550 -87.5858 279° West 127 235 12.000  Level Chicago Center
Fri 13:49:59 43.3589 -87.6344 276° West 127 235 12.000  Level Chicago Center
Fri 13:51:01 43.3625 -87.6828 276° West 127 235 12.000  Level Chicago Center
Fri 13:52:03 43.3656 -87.7319 275° West 129 238 12.000  Level Chicago Center
Fri 13:53:05 43.3706 -87.7822 278° West 132 245 12.000  Level Chicago Center
Fri 13:54:07 43.3742 -87.8442 275° West 135 249 12.000  Level Chicago Center
Fri 13:55:10 43.3781 -87.8961 276° West 137 254 12.000  Level Chicago Center
Fri 13:56:12 43.3828 -87.9469 277° West 134 248 12.000  Level Chicago Center
Fri 13:57:14 43.3867 -87.9992 276° West 137 254 12.000  Level Chicago Center
Fri 13:58:16 43.3908 -88.0525 276° West 138 256 12.000  Level Chicago Center
Fri 13:59:21 43.3947 -88.1139 275° West 136 253 12.000  Level Chicago Center
Fri 14:00:23 43.3992 -88.1661 277° West 137 254 12.000  Level Chicago Center
Fri 14:01:25 43.4031 -88.2178 276° West 136 253 12.000  Level Chicago Center
Fri 14:02:28 43.4067 -88.2694 276° West 136 253 12.000  Level Chicago Center
Fri 14:03:30 43.4103 -88.3181 276° West 129 238 12.000  Level Chicago Center
Fri 14:04:32 43.4144 -88.3794 275° West 134 248 12.000  Level Chicago Center
Fri 14:05:34 43.4183 -88.4328 276° West 138 256 12.000  Level Chicago Center
Fri 14:06:36 43.4233 -88.4883 277° West 141 261 12.000  Level Chicago Center
Fri 14:07:38 43.4289 -88.5444 278° West 143 266 12.000  Level Chicago Center
Fri 14:08:40 43.4297 -88.5947 271° West 136 253 12.000  Level Chicago Center
Fri 14:09:42 43.4333 -88.6469 275° West 137 254 12.000  Level Chicago Center
Fri 14:10:44 43.4372 -88.6992 276° West 137 254 12.000  Level Chicago Center
Fri 14:11:47 43.4408 -88.7503 276° West 136 253 12.000  Level Chicago Center
Fri 14:12:49 43.4444 -88.8022 275° West 136 253 12.000 -48 Level Chicago Center
Fri 14:13:51 43.4483 -88.8642 275° West 136 253 11.900 -48 Descending Chicago Center
Fri 14:14:53 43.4522 -88.9161 276° West 137 254 11.900  Level Chicago Center
Fri 14:15:55 43.4553 -88.9664 275° West 134 248 11.900  Level Chicago Center
Fri 14:16:57 43.4586 -89.0167 275° West 132 245 11.900  Level Chicago Center
Fri 14:17:59 43.4622 -89.0681 276° West 134 248 11.900  Level Chicago Center
Fri 14:19:01 43.4661 -89.1278 275° West 132 245 11.900  Level Chicago Center
Fri 14:20:03 43.4692 -89.1778 275° West 131 243 11.900  Level Chicago Center
Fri 14:21:05 43.4725 -89.2292 275° West 133 246 11.900  Level Chicago Center
Fri 14:22:08 43.4758 -89.2797 275° West 133 246 11.900  Level Chicago Center
Fri 14:23:10 43.4789 -89.3311 275° West 134 248 11.900  Level Chicago Center
Fri 14:24:12 43.4825 -89.3800 276° West 131 243 11.900  Level Chicago Center
Fri 14:25:14 43.4850 -89.4400 273° West 130 241 11.900  Level Chicago Center
Fri 14:26:16 43.4878 -89.4889 274° West 128 237 11.900  Level Chicago Center
Fri 14:27:18 43.4922 -89.5361 277° West 125 232 11.900  Level Chicago Center
Fri 14:28:20 43.4950 -89.5850 274° West 127 235 11.900  Level Chicago Center
Fri 14:29:22 43.4975 -89.6342 274° West 129 238 11.900  Level Chicago Center
Fri 14:30:24 43.5011 -89.6814 276° West 126 233 11.900  Level Chicago Center
Fri 14:31:26 43.5047 -89.7394 275° West 126 233 11.900  Level Chicago Center
Fri 14:32:29 43.5072 -89.7881 274° West 127 235 11.900  Level Chicago Center
Fri 14:33:30 43.5103 -89.8364 275° West 127 235 11.900  Level Chicago Center
Fri 14:34:32 43.5117 -89.8858 272° West 129 238 11.900  Level Chicago Center
Fri 14:35:35 43.5147 -89.9347 275° West 130 241 11.900  Level Chicago Center
Fri 14:36:37 43.5192 -89.9933 276° West 129 238 11.900  Level Chicago Center
Fri 14:37:39 43.5211 -90.0419 273° West 128 237 11.900  Level Chicago Center
Fri 14:38:41 43.5239 -90.0906 275° West 128 237 11.900  Level Chicago Center
Fri 14:39:43 43.5275 -90.1417 276° West 132 245 11.900  Level Chicago Center
Fri 14:40:45 43.5300 -90.1931 274° West 134 248 11.900  Level Chicago Center
Fri 14:41:47 43.5322 -90.2450 273° West 137 254 11.900 48 Level Chicago Center
Fri 14:42:50 43.5358 -90.3058 275° West 140 259 12.000 48 Climbing Chicago Center
Fri 14:43:52 43.5383 -90.3578 274° West 139 257 12.000  Level Chicago Center
Fri 14:45:56 43.5444 -90.4653 275° West 142 262 12.000  Level Chicago Center
Fri 14:46:58 43.5483 -90.5289 275° West 141 261 12.000  Level Chicago Center
Fri 14:48:00 43.5539 -90.5811 278° West 139 257 12.000  Level Chicago Center
Fri 14:49:02 43.5611 -90.6319 281° West 137 254 12.000  Level Chicago Center
Fri 14:50:04 43.5686 -90.6825 282° West 137 254 12.000  Level Chicago Center
Fri 14:51:06 43.5747 -90.7319 280° West 135 249 12.000  Level Chicago Center
Fri 14:52:08 43.5839 -90.7928 282° West 135 249 12.000  Level Chicago Center
Fri 14:53:11 43.5908 -90.8431 281° West 134 248 12.000  Level Chicago Center
Fri 14:54:12 43.5972 -90.8922 280° West 133 246 12.000 -195 Level Chicago Center
Fri 14:55:14 43.6042 -90.9422 281° West 133 246 11.600 -677 Descending Chicago Center
Fri 14:56:16 43.6119 -91.0014 280° West 150 278 10.600 -1.056 Descending Chicago Center
Fri 14:57:19 43.6225 -91.0747 281° West 162 299 9.400 -1.056 Descending Chicago Center
Fri 14:58:21 43.6308 -91.1369 281° West 165 306 8.400 -1.051 Descending Chicago Center
Fri 14:59:36 43.6411 -91.2183 280° West 164 304 7.000 -1.007 Descending Minneapolis Center
Fri 15:00:38 43.6494 -91.2789 281° West 167 309 6.100 -919 Descending Minneapolis Center
Fri 15:01:40 43.6592 -91.3447 282° West 168 311 5.100 -871 Descending Minneapolis Center
Fri 15:02:42 43.6675 -91.4058 281° West 161 298 4.300 -677 Descending Minneapolis Center
Fri 15:03:44 43.6747 -91.4606 280° West 142 262 3.700 -677 Descending Minneapolis Center
Fri 15:04:46 43.6819 -91.5114 281° West 137 254 2.900 -774 Descending Minneapolis Center

Login

Don't have an account? Register now (free) for customized features, flight alerts, and more!